sensor_id;sensor_type;location;lat;lon;timestamp;pressure;altitude;pressure_sealevel;temperature
9985;BMP180;16737;50.932;6.780;2023-11-22T00:01:13;101160.00;;;11.40
9985;BMP180;16737;50.932;6.780;2023-11-22T00:03:40;101152.00;;;11.30
9985;BMP180;16737;50.932;6.780;2023-11-22T00:06:08;101158.00;;;11.30
9985;BMP180;16737;50.932;6.780;2023-11-22T00:08:36;101143.00;;;11.30
9985;BMP180;16737;50.932;6.780;2023-11-22T00:11:03;101156.00;;;11.30
9985;BMP180;16737;50.932;6.780;2023-11-22T00:13:31;101133.00;;;11.30
9985;BMP180;16737;50.932;6.780;2023-11-22T00:15:58;101156.00;;;11.30
9985;BMP180;16737;50.932;6.780;2023-11-22T00:18:25;101153.00;;;11.20
9985;BMP180;16737;50.932;6.780;2023-11-22T00:20:53;101170.00;;;11.20
9985;BMP180;16737;50.932;6.780;2023-11-22T00:23:22;101154.00;;;11.20
9985;BMP180;16737;50.932;6.780;2023-11-22T00:25:52;101150.00;;;11.20
9985;BMP180;16737;50.932;6.780;2023-11-22T00:28:19;101123.00;;;11.20
9985;BMP180;16737;50.932;6.780;2023-11-22T00:30:46;101156.00;;;11.20
9985;BMP180;16737;50.932;6.780;2023-11-22T00:33:13;101153.00;;;11.20
9985;BMP180;16737;50.932;6.780;2023-11-22T00:35:41;101148.00;;;11.20
9985;BMP180;16737;50.932;6.780;2023-11-22T00:38:08;101150.00;;;11.10
9985;BMP180;16737;50.932;6.780;2023-11-22T00:40:36;101156.00;;;11.10
9985;BMP180;16737;50.932;6.780;2023-11-22T00:43:03;101163.00;;;11.10
9985;BMP180;16737;50.932;6.780;2023-11-22T00:45:30;101152.00;;;11.10
9985;BMP180;16737;50.932;6.780;2023-11-22T00:47:57;101163.00;;;11.10
9985;BMP180;16737;50.932;6.780;2023-11-22T00:50:24;101160.00;;;11.10
9985;BMP180;16737;50.932;6.780;2023-11-22T00:52:51;101162.00;;;11.10
9985;BMP180;16737;50.932;6.780;2023-11-22T00:55:19;101157.00;;;11.10
9985;BMP180;16737;50.932;6.780;2023-11-22T00:57:48;101162.00;;;11.10
9985;BMP180;16737;50.932;6.780;2023-11-22T01:00:16;101163.00;;;11.10
9985;BMP180;16737;50.932;6.780;2023-11-22T01:02:43;101156.00;;;11.10
9985;BMP180;16737;50.932;6.780;2023-11-22T01:05:10;101160.00;;;11.10
9985;BMP180;16737;50.932;6.780;2023-11-22T01:07:38;101165.00;;;11.10
9985;BMP180;16737;50.932;6.780;2023-11-22T01:10:06;101165.00;;;11.10
9985;BMP180;16737;50.932;6.780;2023-11-22T01:12:33;101164.00;;;11.10
9985;BMP180;16737;50.932;6.780;2023-11-22T01:15:02;101168.00;;;11.10
9985;BMP180;16737;50.932;6.780;2023-11-22T01:17:31;101176.00;;;11.10
9985;BMP180;16737;50.932;6.780;2023-11-22T01:19:58;101178.00;;;11.10
9985;BMP180;16737;50.932;6.780;2023-11-22T01:22:25;101182.00;;;11.10
9985;BMP180;16737;50.932;6.780;2023-11-22T01:24:53;101182.00;;;11.10
9985;BMP180;16737;50.932;6.780;2023-11-22T01:27:20;101189.00;;;11.10
9985;BMP180;16737;50.932;6.780;2023-11-22T01:29:47;101189.00;;;11.10
9985;BMP180;16737;50.932;6.780;2023-11-22T01:32:15;101195.00;;;11.10
9985;BMP180;16737;50.932;6.780;2023-11-22T01:34:42;101193.00;;;11.10
9985;BMP180;16737;50.932;6.780;2023-11-22T01:37:09;101190.00;;;11.10
9985;BMP180;16737;50.932;6.780;2023-11-22T01:39:39;101200.00;;;11.10
9985;BMP180;16737;50.932;6.780;2023-11-22T01:42:07;101199.00;;;11.10
9985;BMP180;16737;50.932;6.780;2023-11-22T01:44:35;101192.00;;;11.10
9985;BMP180;16737;50.932;6.780;2023-11-22T01:47:02;101204.00;;;11.10
9985;BMP180;16737;50.932;6.780;2023-11-22T01:49:33;101204.00;;;11.10
9985;BMP180;16737;50.932;6.780;2023-11-22T01:52:03;101208.00;;;11.10
9985;BMP180;16737;50.932;6.780;2023-11-22T01:54:32;101224.00;;;11.10
9985;BMP180;16737;50.932;6.780;2023-11-22T01:57:00;101227.00;;;11.10
9985;BMP180;16737;50.932;6.780;2023-11-22T01:59:30;101217.00;;;11.10
9985;BMP180;16737;50.932;6.780;2023-11-22T02:01:57;101217.00;;;11.10
9985;BMP180;16737;50.932;6.780;2023-11-22T02:04:24;101218.00;;;11.10
9985;BMP180;16737;50.932;6.780;2023-11-22T02:06:53;101225.00;;;11.10
9985;BMP180;16737;50.932;6.780;2023-11-22T02:09:20;101230.00;;;11.10
9985;BMP180;16737;50.932;6.780;2023-11-22T02:11:48;101236.00;;;11.10
9985;BMP180;16737;50.932;6.780;2023-11-22T02:14:16;101240.00;;;11.10
9985;BMP180;16737;50.932;6.780;2023-11-22T02:16:43;101237.00;;;11.00
9985;BMP180;16737;50.932;6.780;2023-11-22T02:19:16;101241.00;;;11.00
9985;BMP180;16737;50.932;6.780;2023-11-22T02:21:43;101248.00;;;11.00
9985;BMP180;16737;50.932;6.780;2023-11-22T02:24:12;101256.00;;;11.00
9985;BMP180;16737;50.932;6.780;2023-11-22T02:26:44;101251.00;;;11.00
9985;BMP180;16737;50.932;6.780;2023-11-22T02:29:11;101266.00;;;11.00
9985;BMP180;16737;50.932;6.780;2023-11-22T02:31:40;101266.00;;;11.00
9985;BMP180;16737;50.932;6.780;2023-11-22T02:34:08;101261.00;;;11.00
9985;BMP180;16737;50.932;6.780;2023-11-22T02:36:35;101256.00;;;10.90
9985;BMP180;16737;50.932;6.780;2023-11-22T02:39:02;101248.00;;;10.90
9985;BMP180;16737;50.932;6.780;2023-11-22T02:41:31;101241.00;;;10.90
9985;BMP180;16737;50.932;6.780;2023-11-22T02:44:00;101246.00;;;10.90
9985;BMP180;16737;50.932;6.780;2023-11-22T02:46:28;101238.00;;;10.90
9985;BMP180;16737;50.932;6.780;2023-11-22T02:48:54;101241.00;;;10.90
9985;BMP180;16737;50.932;6.780;2023-11-22T02:51:21;101242.00;;;10.90
9985;BMP180;16737;50.932;6.780;2023-11-22T02:53:49;101247.00;;;10.90
9985;BMP180;16737;50.932;6.780;2023-11-22T02:56:16;101235.00;;;10.90
9985;BMP180;16737;50.932;6.780;2023-11-22T02:58:45;101242.00;;;10.80
9985;BMP180;16737;50.932;6.780;2023-11-22T03:01:12;101245.00;;;10.80
9985;BMP180;16737;50.932;6.780;2023-11-22T03:03:39;101246.00;;;10.80
9985;BMP180;16737;50.932;6.780;2023-11-22T03:06:06;101253.00;;;10.80
9985;BMP180;16737;50.932;6.780;2023-11-22T03:08:34;101259.00;;;10.80
9985;BMP180;16737;50.932;6.780;2023-11-22T03:11:01;101263.00;;;10.80
9985;BMP180;16737;50.932;6.780;2023-11-22T03:13:28;101256.00;;;10.80
9985;BMP180;16737;50.932;6.780;2023-11-22T03:15:57;101264.00;;;10.70
9985;BMP180;16737;50.932;6.780;2023-11-22T03:18:24;101264.00;;;10.70
9985;BMP180;16737;50.932;6.780;2023-11-22T03:20:51;101274.00;;;10.70
9985;BMP180;16737;50.932;6.780;2023-11-22T03:23:20;101270.00;;;10.70
9985;BMP180;16737;50.932;6.780;2023-11-22T03:25:47;101280.00;;;10.70
9985;BMP180;16737;50.932;6.780;2023-11-22T03:28:14;101282.00;;;10.70
9985;BMP180;16737;50.932;6.780;2023-11-22T03:30:41;101299.00;;;10.60
9985;BMP180;16737;50.932;6.780;2023-11-22T03:33:09;101298.00;;;10.50
9985;BMP180;16737;50.932;6.780;2023-11-22T03:35:36;101306.00;;;10.60
9985;BMP180;16737;50.932;6.780;2023-11-22T03:38:03;101303.00;;;10.50
9985;BMP180;16737;50.932;6.780;2023-11-22T03:40:30;101323.00;;;10.50
9985;BMP180;16737;50.932;6.780;2023-11-22T03:42:57;101309.00;;;10.50
9985;BMP180;16737;50.932;6.780;2023-11-22T03:45:24;101317.00;;;10.50
9985;BMP180;16737;50.932;6.780;2023-11-22T03:47:51;101308.00;;;10.50
9985;BMP180;16737;50.932;6.780;2023-11-22T03:50:20;101316.00;;;10.40
9985;BMP180;16737;50.932;6.780;2023-11-22T03:52:47;101312.00;;;10.40
9985;BMP180;16737;50.932;6.780;2023-11-22T03:55:14;101313.00;;;10.40
9985;BMP180;16737;50.932;6.780;2023-11-22T03:57:41;101312.00;;;10.40
9985;BMP180;16737;50.932;6.780;2023-11-22T04:00:09;101306.00;;;10.30
9985;BMP180;16737;50.932;6.780;2023-11-22T04:02:38;101311.00;;;10.30
9985;BMP180;16737;50.932;6.780;2023-11-22T04:05:08;101290.00;;;10.30
9985;BMP180;16737;50.932;6.780;2023-11-22T04:07:38;101308.00;;;10.30
9985;BMP180;16737;50.932;6.780;2023-11-22T04:10:06;101297.00;;;10.30
9985;BMP180;16737;50.932;6.780;2023-11-22T04:12:33;101314.00;;;10.30
9985;BMP180;16737;50.932;6.780;2023-11-22T04:15:00;101314.00;;;10.30
9985;BMP180;16737;50.932;6.780;2023-11-22T04:17:27;101332.00;;;10.30
9985;BMP180;16737;50.932;6.780;2023-11-22T04:19:54;101340.00;;;10.30
9985;BMP180;16737;50.932;6.780;2023-11-22T04:22:20;101340.00;;;10.20
9985;BMP180;16737;50.932;6.780;2023-11-22T04:24:49;101349.00;;;10.20
9985;BMP180;16737;50.932;6.780;2023-11-22T04:27:16;101352.00;;;10.10
9985;BMP180;16737;50.932;6.780;2023-11-22T04:29:43;101369.00;;;10.10
9985;BMP180;16737;50.932;6.780;2023-11-22T04:32:09;101366.00;;;10.10
9985;BMP180;16737;50.932;6.780;2023-11-22T04:34:36;101368.00;;;10.00
9985;BMP180;16737;50.932;6.780;2023-11-22T04:37:04;101390.00;;;10.00
9985;BMP180;16737;50.932;6.780;2023-11-22T04:39:31;101380.00;;;9.90
9985;BMP180;16737;50.932;6.780;2023-11-22T04:41:59;101387.00;;;9.90
9985;BMP180;16737;50.932;6.780;2023-11-22T04:44:26;101378.00;;;9.80
9985;BMP180;16737;50.932;6.780;2023-11-22T04:46:53;101361.00;;;9.80
9985;BMP180;16737;50.932;6.780;2023-11-22T04:49:20;101365.00;;;9.80
9985;BMP180;16737;50.932;6.780;2023-11-22T04:51:47;101375.00;;;9.70
9985;BMP180;16737;50.932;6.780;2023-11-22T04:54:15;101366.00;;;9.70
9985;BMP180;16737;50.932;6.780;2023-11-22T04:56:42;101373.00;;;9.60
9985;BMP180;16737;50.932;6.780;2023-11-22T04:59:11;101360.00;;;9.60
9985;BMP180;16737;50.932;6.780;2023-11-22T05:01:38;101360.00;;;9.50
9985;BMP180;16737;50.932;6.780;2023-11-22T05:04:05;101328.00;;;9.50
9985;BMP180;16737;50.932;6.780;2023-11-22T05:06:32;101367.00;;;9.50
9985;BMP180;16737;50.932;6.780;2023-11-22T05:08:59;101352.00;;;9.50
9985;BMP180;16737;50.932;6.780;2023-11-22T05:11:26;101357.00;;;9.40
9985;BMP180;16737;50.932;6.780;2023-11-22T05:13:53;101368.00;;;9.40
9985;BMP180;16737;50.932;6.780;2023-11-22T05:16:22;101365.00;;;9.40
9985;BMP180;16737;50.932;6.780;2023-11-22T05:18:49;101373.00;;;9.40
9985;BMP180;16737;50.932;6.780;2023-11-22T05:21:16;101365.00;;;9.30
9985;BMP180;16737;50.932;6.780;2023-11-22T05:23:43;101345.00;;;9.30
9985;BMP180;16737;50.932;6.780;2023-11-22T05:26:10;101368.00;;;9.30
9985;BMP180;16737;50.932;6.780;2023-11-22T05:28:37;101369.00;;;9.30
9985;BMP180;16737;50.932;6.780;2023-11-22T05:31:04;101379.00;;;9.30
9985;BMP180;16737;50.932;6.780;2023-11-22T05:33:33;101397.00;;;9.30
9985;BMP180;16737;50.932;6.780;2023-11-22T05:36:00;101392.00;;;9.20
9985;BMP180;16737;50.932;6.780;2023-11-22T05:38:26;101380.00;;;9.20
9985;BMP180;16737;50.932;6.780;2023-11-22T05:40:53;101392.00;;;9.20
9985;BMP180;16737;50.932;6.780;2023-11-22T05:43:20;101398.00;;;9.20
9985;BMP180;16737;50.932;6.780;2023-11-22T05:45:51;101413.00;;;9.10
9985;BMP180;16737;50.932;6.780;2023-11-22T05:48:18;101412.00;;;9.10
9985;BMP180;16737;50.932;6.780;2023-11-22T05:50:48;101418.00;;;9.10
9985;BMP180;16737;50.932;6.780;2023-11-22T05:53:15;101416.00;;;9.10
9985;BMP180;16737;50.932;6.780;2023-11-22T05:55:45;101413.00;;;9.10
9985;BMP180;16737;50.932;6.780;2023-11-22T05:58:12;101420.00;;;9.10
9985;BMP180;16737;50.932;6.780;2023-11-22T06:00:42;101420.00;;;9.10
9985;BMP180;16737;50.932;6.780;2023-11-22T06:03:11;101422.00;;;9.00
9985;BMP180;16737;50.932;6.780;2023-11-22T06:05:38;101432.00;;;9.00
9985;BMP180;16737;50.932;6.780;2023-11-22T06:08:07;101436.00;;;9.00
9985;BMP180;16737;50.932;6.780;2023-11-22T06:10:35;101440.00;;;9.00
9985;BMP180;16737;50.932;6.780;2023-11-22T06:13:03;101435.00;;;9.00
9985;BMP180;16737;50.932;6.780;2023-11-22T06:15:31;101432.00;;;9.00
9985;BMP180;16737;50.932;6.780;2023-11-22T06:17:58;101438.00;;;9.00
9985;BMP180;16737;50.932;6.780;2023-11-22T06:20:25;101437.00;;;9.00
9985;BMP180;16737;50.932;6.780;2023-11-22T06:22:52;101426.00;;;9.00
9985;BMP180;16737;50.932;6.780;2023-11-22T06:25:21;101425.00;;;9.00
9985;BMP180;16737;50.932;6.780;2023-11-22T06:27:49;101432.00;;;9.00
9985;BMP180;16737;50.932;6.780;2023-11-22T06:30:16;101417.00;;;8.90
9985;BMP180;16737;50.932;6.780;2023-11-22T06:32:43;101431.00;;;8.90
9985;BMP180;16737;50.932;6.780;2023-11-22T06:35:10;101435.00;;;8.90
9985;BMP180;16737;50.932;6.780;2023-11-22T06:37:40;101431.00;;;8.90
9985;BMP180;16737;50.932;6.780;2023-11-22T06:40:08;101435.00;;;8.90
9985;BMP180;16737;50.932;6.780;2023-11-22T06:42:39;101438.00;;;8.80
9985;BMP180;16737;50.932;6.780;2023-11-22T06:45:08;101431.00;;;8.80
9985;BMP180;16737;50.932;6.780;2023-11-22T06:47:38;101446.00;;;8.80
9985;BMP180;16737;50.932;6.780;2023-11-22T06:50:06;101447.00;;;8.80
9985;BMP180;16737;50.932;6.780;2023-11-22T06:52:35;101437.00;;;8.70
9985;BMP180;16737;50.932;6.780;2023-11-22T06:55:02;101446.00;;;8.70
9985;BMP180;16737;50.932;6.780;2023-11-22T06:57:29;101451.00;;;8.70
9985;BMP180;16737;50.932;6.780;2023-11-22T06:59:57;101455.00;;;8.70
9985;BMP180;16737;50.932;6.780;2023-11-22T07:02:24;101466.00;;;8.70
9985;BMP180;16737;50.932;6.780;2023-11-22T07:04:51;101457.00;;;8.70
9985;BMP180;16737;50.932;6.780;2023-11-22T07:07:18;101441.00;;;8.70
9985;BMP180;16737;50.932;6.780;2023-11-22T07:09:45;101444.00;;;8.70
9985;BMP180;16737;50.932;6.780;2023-11-22T07:12:12;101451.00;;;8.70
9985;BMP180;16737;50.932;6.780;2023-11-22T07:14:39;101464.00;;;8.70
9985;BMP180;16737;50.932;6.780;2023-11-22T07:17:10;101463.00;;;8.70
9985;BMP180;16737;50.932;6.780;2023-11-22T07:19:38;101475.00;;;8.70
9985;BMP180;16737;50.932;6.780;2023-11-22T07:22:12;101469.00;;;8.70
9985;BMP180;16737;50.932;6.780;2023-11-22T07:24:45;101471.00;;;8.70
9985;BMP180;16737;50.932;6.780;2023-11-22T07:27:13;101460.00;;;8.70
9985;BMP180;16737;50.932;6.780;2023-11-22T07:29:41;101456.00;;;8.70
9985;BMP180;16737;50.932;6.780;2023-11-22T07:32:10;101483.00;;;8.70
9985;BMP180;16737;50.932;6.780;2023-11-22T07:34:39;101491.00;;;8.70
9985;BMP180;16737;50.932;6.780;2023-11-22T07:37:07;101497.00;;;8.70
9985;BMP180;16737;50.932;6.780;2023-11-22T07:39:34;101504.00;;;8.70
9985;BMP180;16737;50.932;6.780;2023-11-22T07:42:03;101520.00;;;8.70
9985;BMP180;16737;50.932;6.780;2023-11-22T07:44:34;101539.00;;;8.60
9985;BMP180;16737;50.932;6.780;2023-11-22T07:47:02;101520.00;;;8.60
9985;BMP180;16737;50.932;6.780;2023-11-22T07:49:33;101533.00;;;8.70
9985;BMP180;16737;50.932;6.780;2023-11-22T07:52:02;101534.00;;;8.70
9985;BMP180;16737;50.932;6.780;2023-11-22T07:54:30;101525.00;;;8.70
9985;BMP180;16737;50.932;6.780;2023-11-22T07:56:57;101518.00;;;8.70
9985;BMP180;16737;50.932;6.780;2023-11-22T07:59:24;101522.00;;;8.70
9985;BMP180;16737;50.932;6.780;2023-11-22T08:01:51;101526.00;;;8.80
9985;BMP180;16737;50.932;6.780;2023-11-22T08:04:19;101532.00;;;8.80
9985;BMP180;16737;50.932;6.780;2023-11-22T08:06:48;101524.00;;;8.80
9985;BMP180;16737;50.932;6.780;2023-11-22T08:09:15;101505.00;;;8.80
9985;BMP180;16737;50.932;6.780;2023-11-22T08:11:45;101509.00;;;8.90
9985;BMP180;16737;50.932;6.780;2023-11-22T08:14:13;101507.00;;;8.90
9985;BMP180;16737;50.932;6.780;2023-11-22T08:16:40;101491.00;;;8.90
9985;BMP180;16737;50.932;6.780;2023-11-22T08:19:08;101496.00;;;9.00
9985;BMP180;16737;50.932;6.780;2023-11-22T08:21:35;101489.00;;;9.00
9985;BMP180;16737;50.932;6.780;2023-11-22T08:24:05;101494.00;;;9.00
9985;BMP180;16737;50.932;6.780;2023-11-22T08:26:32;101490.00;;;9.10
9985;BMP180;16737;50.932;6.780;2023-11-22T08:28:59;101494.00;;;9.10
9985;BMP180;16737;50.932;6.780;2023-11-22T08:31:26;101492.00;;;9.20
9985;BMP180;16737;50.932;6.780;2023-11-22T08:33:53;101479.00;;;9.20
9985;BMP180;16737;50.932;6.780;2023-11-22T08:36:20;101474.00;;;9.20
9985;BMP180;16737;50.932;6.780;2023-11-22T08:38:49;101492.00;;;9.20
9985;BMP180;16737;50.932;6.780;2023-11-22T08:41:17;101505.00;;;9.20
9985;BMP180;16737;50.932;6.780;2023-11-22T08:43:44;101510.00;;;9.30
9985;BMP180;16737;50.932;6.780;2023-11-22T08:46:13;101517.00;;;9.30
9985;BMP180;16737;50.932;6.780;2023-11-22T08:48:40;101516.00;;;9.30
9985;BMP180;16737;50.932;6.780;2023-11-22T08:51:08;101530.00;;;9.40
9985;BMP180;16737;50.932;6.780;2023-11-22T08:53:35;101528.00;;;9.40
9985;BMP180;16737;50.932;6.780;2023-11-22T08:56:02;101534.00;;;9.50
9985;BMP180;16737;50.932;6.780;2023-11-22T08:58:32;101527.00;;;9.50
9985;BMP180;16737;50.932;6.780;2023-11-22T09:01:00;101577.00;;;9.60
9985;BMP180;16737;50.932;6.780;2023-11-22T09:03:29;101584.00;;;9.60
9985;BMP180;16737;50.932;6.780;2023-11-22T09:05:56;101581.00;;;9.70
9985;BMP180;16737;50.932;6.780;2023-11-22T09:08:23;101588.00;;;9.70
9985;BMP180;16737;50.932;6.780;2023-11-22T09:10:50;101592.00;;;9.70
9985;BMP180;16737;50.932;6.780;2023-11-22T09:13:17;101595.00;;;9.80
9985;BMP180;16737;50.932;6.780;2023-11-22T09:15:46;101597.00;;;9.80
9985;BMP180;16737;50.932;6.780;2023-11-22T09:18:13;101602.00;;;9.80
9985;BMP180;16737;50.932;6.780;2023-11-22T09:20:42;101584.00;;;9.90
9985;BMP180;16737;50.932;6.780;2023-11-22T09:23:10;101572.00;;;9.90
9985;BMP180;16737;50.932;6.780;2023-11-22T09:25:38;101565.00;;;10.00
9985;BMP180;16737;50.932;6.780;2023-11-22T09:28:05;101577.00;;;10.00
9985;BMP180;16737;50.932;6.780;2023-11-22T09:30:35;101572.00;;;10.10
9985;BMP180;16737;50.932;6.780;2023-11-22T09:33:07;101577.00;;;10.10
9985;BMP180;16737;50.932;6.780;2023-11-22T09:35:35;101573.00;;;10.20
9985;BMP180;16737;50.932;6.780;2023-11-22T09:38:06;101566.00;;;10.20
9985;BMP180;16737;50.932;6.780;2023-11-22T09:40:36;101572.00;;;10.30
9985;BMP180;16737;50.932;6.780;2023-11-22T09:43:04;101585.00;;;10.40
9985;BMP180;16737;50.932;6.780;2023-11-22T09:45:33;101580.00;;;10.40
9985;BMP180;16737;50.932;6.780;2023-11-22T09:48:03;101580.00;;;10.40
9985;BMP180;16737;50.932;6.780;2023-11-22T09:50:40;101575.00;;;10.40
9985;BMP180;16737;50.932;6.780;2023-11-22T09:53:14;101559.00;;;10.50
9985;BMP180;16737;50.932;6.780;2023-11-22T09:55:45;101558.00;;;10.60
9985;BMP180;16737;50.932;6.780;2023-11-22T09:58:13;101541.00;;;10.60
9985;BMP180;16737;50.932;6.780;2023-11-22T10:00:43;101560.00;;;10.70
9985;BMP180;16737;50.932;6.780;2023-11-22T10:03:10;101569.00;;;10.70
9985;BMP180;16737;50.932;6.780;2023-11-22T10:05:42;101563.00;;;10.80
9985;BMP180;16737;50.932;6.780;2023-11-22T10:08:09;101562.00;;;10.90
9985;BMP180;16737;50.932;6.780;2023-11-22T10:10:37;101562.00;;;10.90
9985;BMP180;16737;50.932;6.780;2023-11-22T10:13:05;101559.00;;;11.00
9985;BMP180;16737;50.932;6.780;2023-11-22T10:15:32;101557.00;;;11.10
9985;BMP180;16737;50.932;6.780;2023-11-22T10:18:00;101567.00;;;11.10
9985;BMP180;16737;50.932;6.780;2023-11-22T10:20:37;101563.00;;;11.10
9985;BMP180;16737;50.932;6.780;2023-11-22T10:23:08;101563.00;;;11.20
9985;BMP180;16737;50.932;6.780;2023-11-22T10:25:37;101564.00;;;11.20
9985;BMP180;16737;50.932;6.780;2023-11-22T10:28:06;101568.00;;;11.20
9985;BMP180;16737;50.932;6.780;2023-11-22T10:30:33;101574.00;;;11.20
9985;BMP180;16737;50.932;6.780;2023-11-22T10:32:59;101554.00;;;11.30
9985;BMP180;16737;50.932;6.780;2023-11-22T10:35:27;101568.00;;;11.30
9985;BMP180;16737;50.932;6.780;2023-11-22T10:37:54;101570.00;;;11.30
9985;BMP180;16737;50.932;6.780;2023-11-22T10:40:22;101570.00;;;11.40
9985;BMP180;16737;50.932;6.780;2023-11-22T10:42:50;101574.00;;;11.40
9985;BMP180;16737;50.932;6.780;2023-11-22T10:45:21;101574.00;;;11.40
9985;BMP180;16737;50.932;6.780;2023-11-22T10:47:51;101579.00;;;11.40
9985;BMP180;16737;50.932;6.780;2023-11-22T10:50:20;101573.00;;;11.40
9985;BMP180;16737;50.932;6.780;2023-11-22T10:52:51;101584.00;;;11.40
9985;BMP180;16737;50.932;6.780;2023-11-22T10:55:27;101584.00;;;11.40
9985;BMP180;16737;50.932;6.780;2023-11-22T10:58:01;101586.00;;;11.40
9985;BMP180;16737;50.932;6.780;2023-11-22T11:00:32;101585.00;;;11.50
9985;BMP180;16737;50.932;6.780;2023-11-22T11:03:06;101588.00;;;11.50
9985;BMP180;16737;50.932;6.780;2023-11-22T11:05:40;101599.00;;;11.50
9985;BMP180;16737;50.932;6.780;2023-11-22T11:08:11;101601.00;;;11.60
9985;BMP180;16737;50.932;6.780;2023-11-22T11:10:40;101606.00;;;11.70
9985;BMP180;16737;50.932;6.780;2023-11-22T11:13:10;101605.00;;;11.70
9985;BMP180;16737;50.932;6.780;2023-11-22T11:15:40;101617.00;;;11.70
9985;BMP180;16737;50.932;6.780;2023-11-22T11:18:12;101599.00;;;11.70
9985;BMP180;16737;50.932;6.780;2023-11-22T11:20:49;101589.00;;;11.80
9985;BMP180;16737;50.932;6.780;2023-11-22T11:23:16;101583.00;;;11.80
9985;BMP180;16737;50.932;6.780;2023-11-22T11:25:47;101579.00;;;11.80
9985;BMP180;16737;50.932;6.780;2023-11-22T11:28:14;101576.00;;;11.90
9985;BMP180;16737;50.932;6.780;2023-11-22T11:30:44;101570.00;;;11.90
9985;BMP180;16737;50.932;6.780;2023-11-22T11:33:13;101568.00;;;12.00
9985;BMP180;16737;50.932;6.780;2023-11-22T11:35:45;101565.00;;;12.10
9985;BMP180;16737;50.932;6.780;2023-11-22T11:38:15;101556.00;;;12.10
9985;BMP180;16737;50.932;6.780;2023-11-22T11:40:46;101572.00;;;12.20
9985;BMP180;16737;50.932;6.780;2023-11-22T11:43:14;101565.00;;;12.20
9985;BMP180;16737;50.932;6.780;2023-11-22T11:45:43;101558.00;;;12.20
9985;BMP180;16737;50.932;6.780;2023-11-22T11:48:13;101549.00;;;12.20
9985;BMP180;16737;50.932;6.780;2023-11-22T11:50:41;101549.00;;;12.30
9985;BMP180;16737;50.932;6.780;2023-11-22T11:53:08;101555.00;;;12.30
9985;BMP180;16737;50.932;6.780;2023-11-22T11:55:36;101558.00;;;12.40
9985;BMP180;16737;50.932;6.780;2023-11-22T11:58:07;101547.00;;;12.40
9985;BMP180;16737;50.932;6.780;2023-11-22T12:00:36;101542.00;;;12.50
9985;BMP180;16737;50.932;6.780;2023-11-22T12:03:07;101551.00;;;12.50
9985;BMP180;16737;50.932;6.780;2023-11-22T12:05:36;101560.00;;;12.60
9985;BMP180;16737;50.932;6.780;2023-11-22T12:08:03;101567.00;;;12.60
9985;BMP180;16737;50.932;6.780;2023-11-22T12:10:30;101559.00;;;12.70
9985;BMP180;16737;50.932;6.780;2023-11-22T12:12:58;101556.00;;;12.70
9985;BMP180;16737;50.932;6.780;2023-11-22T12:15:27;101557.00;;;12.80
9985;BMP180;16737;50.932;6.780;2023-11-22T12:17:55;101555.00;;;12.80
9985;BMP180;16737;50.932;6.780;2023-11-22T12:20:23;101549.00;;;12.90
9985;BMP180;16737;50.932;6.780;2023-11-22T12:22:52;101530.00;;;12.90
9985;BMP180;16737;50.932;6.780;2023-11-22T12:25:19;101505.00;;;12.90
9985;BMP180;16737;50.932;6.780;2023-11-22T12:27:46;101502.00;;;12.90
9985;BMP180;16737;50.932;6.780;2023-11-22T12:30:32;101489.00;;;12.90
9985;BMP180;16737;50.932;6.780;2023-11-22T12:33:04;101480.00;;;12.90
9985;BMP180;16737;50.932;6.780;2023-11-22T12:35:33;101463.00;;;12.90
9985;BMP180;16737;50.932;6.780;2023-11-22T12:38:02;101457.00;;;12.90
9985;BMP180;16737;50.932;6.780;2023-11-22T12:40:31;101457.00;;;12.90
9985;BMP180;16737;50.932;6.780;2023-11-22T12:43:00;101445.00;;;12.80
9985;BMP180;16737;50.932;6.780;2023-11-22T12:45:29;101450.00;;;12.80
9985;BMP180;16737;50.932;6.780;2023-11-22T12:47:57;101448.00;;;12.80
9985;BMP180;16737;50.932;6.780;2023-11-22T12:50:33;101444.00;;;12.80
9985;BMP180;16737;50.932;6.780;2023-11-22T12:53:09;101431.00;;;12.90
9985;BMP180;16737;50.932;6.780;2023-11-22T12:55:41;101427.00;;;12.90
9985;BMP180;16737;50.932;6.780;2023-11-22T12:58:08;101430.00;;;12.90
9985;BMP180;16737;50.932;6.780;2023-11-22T13:00:35;101420.00;;;13.00
9985;BMP180;16737;50.932;6.780;2023-11-22T13:03:06;101444.00;;;13.00
9985;BMP180;16737;50.932;6.780;2023-11-22T13:05:33;101451.00;;;13.00
9985;BMP180;16737;50.932;6.780;2023-11-22T13:08:00;101445.00;;;13.10
9985;BMP180;16737;50.932;6.780;2023-11-22T13:10:29;101450.00;;;13.10
9985;BMP180;16737;50.932;6.780;2023-11-22T13:12:56;101436.00;;;13.20
9985;BMP180;16737;50.932;6.780;2023-11-22T13:15:24;101445.00;;;13.20
9985;BMP180;16737;50.932;6.780;2023-11-22T13:17:52;101440.00;;;13.20
9985;BMP180;16737;50.932;6.780;2023-11-22T13:20:24;101426.00;;;13.30
9985;BMP180;16737;50.932;6.780;2023-11-22T13:22:53;101447.00;;;13.30
9985;BMP180;16737;50.932;6.780;2023-11-22T13:25:21;101445.00;;;13.30
9985;BMP180;16737;50.932;6.780;2023-11-22T13:27:50;101437.00;;;13.40
9985;BMP180;16737;50.932;6.780;2023-11-22T13:30:19;101435.00;;;13.30
9985;BMP180;16737;50.932;6.780;2023-11-22T13:32:48;101449.00;;;13.30
9985;BMP180;16737;50.932;6.780;2023-11-22T13:35:16;101450.00;;;13.20
9985;BMP180;16737;50.932;6.780;2023-11-22T13:37:46;101458.00;;;13.20
9985;BMP180;16737;50.932;6.780;2023-11-22T13:40:15;101446.00;;;13.20
9985;BMP180;16737;50.932;6.780;2023-11-22T13:42:43;101439.00;;;13.10
9985;BMP180;16737;50.932;6.780;2023-11-22T13:45:11;101447.00;;;13.10
9985;BMP180;16737;50.932;6.780;2023-11-22T13:47:42;101453.00;;;13.10
9985;BMP180;16737;50.932;6.780;2023-11-22T13:50:10;101454.00;;;13.10
9985;BMP180;16737;50.932;6.780;2023-11-22T13:52:40;101458.00;;;13.00
9985;BMP180;16737;50.932;6.780;2023-11-22T13:55:08;101462.00;;;13.00
9985;BMP180;16737;50.932;6.780;2023-11-22T13:57:38;101462.00;;;12.90
9985;BMP180;16737;50.932;6.780;2023-11-22T14:00:08;101456.00;;;12.80
9985;BMP180;16737;50.932;6.780;2023-11-22T14:02:38;101455.00;;;12.80
9985;BMP180;16737;50.932;6.780;2023-11-22T14:05:07;101455.00;;;12.80
9985;BMP180;16737;50.932;6.780;2023-11-22T14:07:35;101459.00;;;12.70
9985;BMP180;16737;50.932;6.780;2023-11-22T14:10:03;101471.00;;;12.60
9985;BMP180;16737;50.932;6.780;2023-11-22T14:12:33;101469.00;;;12.60
9985;BMP180;16737;50.932;6.780;2023-11-22T14:15:01;101477.00;;;12.50
9985;BMP180;16737;50.932;6.780;2023-11-22T14:17:30;101476.00;;;12.50
9985;BMP180;16737;50.932;6.780;2023-11-22T14:19:57;101477.00;;;12.30